Terminal Aerodrome Forecast
Issued by NWS

Home | Current Version | Previous Version | Text Only | Print | Product List | Glossary On
Versions: 1 2 3 4 5 6 7 8 9 10 11 12
000
FTPA31 PHFO 271732
TAFHKO
TAF
PHKO 271732Z 2718/2818 07005KT P6SM FEW045
     FM271900 22010KT P6SM FEW020 SCT050
     FM280800 10005KT P6SM FEW020 SCT050=

USA.gov is the U.S. government's official web portal to all federal, state and local government web resources and services.